^^

Meteo Aereoporti Centro-Italia

 

 
LIRZ - Perugia S.Egidio (208 m.)
Dati ricevuti: 25/09/2017 20:50
Dati non aggiornati
Qualche nuvola
Qualche nuvola
 Vento da N
Vento: N 7 km/h
TEMPERATURA: 15°C
P.to di Rugiada: 11°C
Umidità: 77%
Pressione: 1019 hPa
Nuvole: Qualche nuvola
Visibilità: 10 km
Dettagli Nuvole: Qualche nuvola 1524 m
2017/09/25 18:50 LIRZ 251850Z 35004KT 9999 FEW050 15/11 Q1019
 
LIPY - Ancona Falconara (12 m.)
Dati ricevuti: 25/09/2017 21:50
Molto nuvoloso
Molto nuvoloso
 Vento da SSW
Vento: SSW 7 km/h
TEMPERATURA: 16°C
P.to di Rugiada: 16°C
Umidità: 100%
Pressione: 1019 hPa
Nuvole: Molto nuvoloso
Visibilità: 10 km
Dettagli Nuvole: Qualche nuvola 457 m
Molto nuvoloso 914 m
2017/09/25 19:50 LIPY 251950Z 20004KT 9999 FEW015 BKN030 16/16 Q1019
 
LIPR - Rimini Miramare (12 m.)
Dati ricevuti: 25/09/2017 22:15
Poco nuvoloso
Poco nuvoloso
 Vento da W
Vento: W 13 km/h
TEMPERATURA: 16°C
P.to di Rugiada: 15°C
Umidità: 94%
Pressione: 1020 hPa
Nuvole: Poco nuvoloso
Visibilità: 10 km
Dettagli Nuvole: Qualche nuvola 914 m
Poco nuvoloso 2134 m
2017/09/25 20:15 LIPR 252015Z 28007KT 9999 FEW030 SCT070 16/15 Q1020
 
LIRF - Roma Fiumicino (2 m.)
Dati ricevuti: 25/09/2017 22:20
Sereno
Sereno
 Vento da NNW
Vento: NNW 9 km/h
TEMPERATURA: 17°C
P.to di Rugiada: 11°C
Umidità: 68%
Pressione: 1018 hPa
Condizioni generali: Sereno
Visibilità: oltre 10 km
2017/09/25 20:20 LIRF 252020Z 33005KT CAVOK 17/11 Q1018 NOSIG
 
LIRA - Roma Ciampino (129 m.)
Dati ricevuti: 25/09/2017 22:20
Sereno
Sereno
 Vento da NNW
Vento: NNW 13 km/h
TEMPERATURA: 17°C
P.to di Rugiada: 10°C
Umidità: 64%
Pressione: 1018 hPa
Condizioni generali: Sereno
Visibilità: oltre 10 km
2017/09/25 20:20 LIRA 252020Z 33007KT CAVOK 17/10 Q1018
 
LIRU - Roma Urbe (17 m.)
Dati ricevuti: 25/09/2017 18:50
Dati non aggiornati
Sereno
Sereno
 Vento da N
Vento: N 13 km/h
TEMPERATURA: 22°C
P.to di Rugiada: 11°C
Umidità: 50%
Pressione: 1016 hPa
Condizioni generali: Sereno
Visibilità: oltre 10 km
2017/09/25 16:50 LIRU 251650Z 35007KT CAVOK 22/11 Q1016
 
LIVF - Frontone (570 m.)
Dati ricevuti: 25/09/2017 17:55
Dati non aggiornati
Pioggia debole, Foschia, Poco nuvoloso
Pioggia debole, Foschia, Poco nuvoloso
 Vento da WNW
Vento: WNW 9 km/h
TEMPERATURA: 13°C
P.to di Rugiada: 12°C
Umidità: 94%
Pressione: 1018 hPa
Condizioni generali: Pioggia debole, Foschia
Nuvole: Poco nuvoloso
Visibilità: 3 km
Dettagli Nuvole: Poco nuvoloso 152 m
Poco nuvoloso 305 m
2017/09/25 15:55 LIVF 251555Z 29005KT 3000 -RA BR SCT005 SCT010 13/12 Q1018 RMK OVC MON INVIS VAL INVIS VIS MIN 3000
 
LIRQ - Firenze Peretola (40 m.)
Dati ricevuti: 25/09/2017 22:20
Sereno
Sereno
 Vento da S
Vento: S 6 km/h
TEMPERATURA: 17°C
P.to di Rugiada: 11°C
Umidità: 68%
Pressione: 1019 hPa
Condizioni generali: Sereno
Visibilità: oltre 10 km
2017/09/25 20:20 LIRQ 252020Z 18003KT 130V270 CAVOK 17/11 Q1019
 
LIBP - Pescara (10 m.)
Dati ricevuti: 25/09/2017 21:50
Poco nuvoloso
Poco nuvoloso
 Vento da SSW
Vento: SSW 6 km/h
TEMPERATURA: 16°C
P.to di Rugiada: 14°C
Umidità: 88%
Pressione: 1019 hPa
Nuvole: Poco nuvoloso
Visibilità: 10 km
Dettagli Nuvole: Qualche nuvola 762 m
Poco nuvoloso 1829 m
2017/09/25 19:50 LIBP 251950Z 21003KT 9999 FEW025 SCT060 16/14 Q1019
 
LIRV - Viterbo (300 m.)
Dati ricevuti: 25/09/2017 18:55
Dati non aggiornati
Qualche nuvola
Qualche nuvola
 Vento da NE
Vento: NE 9 km/h
TEMPERATURA: 19°C
P.to di Rugiada: 10°C
Umidità: 56%
Pressione: 1017 hPa
Nuvole: Qualche nuvola
Visibilità: 10 km
Dettagli Nuvole: Qualche nuvola 1219 m
2017/09/25 16:55 LIRV 251655Z 04005KT 9999 FEW040 19/10 Q1017
 
LIQN - Rieti (389 m.)
Dati ricevuti: 25/09/2017 19:50
Dati non aggiornati
Sereno
Sereno
 Vento da direzione variabile
Vento: direzione variabile 6 km/h
TEMPERATURA: 16°C
P.to di Rugiada: 11°C
Umidità: 72%
Pressione: 1017 hPa
Condizioni generali: Sereno
Visibilità: oltre 10 km
2017/09/25 17:50 LIQN 251750Z VRB03KT CAVOK 16/11 Q1017
 
LIRG - Guidonia -RM- (88 m.)
Dati ricevuti: 25/09/2017 19:55
Dati non aggiornati
Sereno
Sereno
 Vento da NNW
Vento: NNW 9 km/h
TEMPERATURA: 19°C
P.to di Rugiada: 9°C
Umidità: 52%
Pressione: 1017 hPa
Condizioni generali: Sereno
Visibilità: oltre 10 km
2017/09/25 17:55 LIRG 251755Z 34005KT CAVOK 19/09 Q1017
 
LIRK - Terminillo -RI-(1874 m.)
Dati ricevuti: 25/09/2017 21:55

 Vento da N
Vento: N 11 km/h
2017/09/25 19:55 LIRK 251955Z AUTO 36006KT //// ///// Q////
 
LIPK - Forlì (27 m.)
Dati ricevuti: 25/09/2017 17:50
Dati non aggiornati
Poco nuvoloso
Poco nuvoloso
 Vento da direzione variabile
Vento: direzione variabile 2 km/h
TEMPERATURA: 18°C
P.to di Rugiada: 15°C
Umidità: 83%
Pressione: 1019 hPa
Nuvole: Poco nuvoloso
Visibilità: 10 km
Dettagli Nuvole: Qualche nuvola 305 m
Poco nuvoloso 1219 m
2017/09/25 15:50 LIPK 251550Z VRB01KT 9999 FEW010 SCT040 18/15 Q1019
 
LIRS - Grosseto (5 m.)
Dati ricevuti: 25/09/2017 21:55
Qualche nuvola
Qualche nuvola
 Vento da NNW
Vento: NNW 9 km/h
TEMPERATURA: 18°C
P.to di Rugiada: 14°C
Umidità: 78%
Pressione: 1018 hPa
Nuvole: Qualche nuvola
Visibilità: 10 km
Dettagli Nuvole: Qualche nuvola 1829 m
2017/09/25 19:55 LIRS 251955Z 33005KT 9999 FEW060 18/14 Q1018
 
LIRP - Pisa S.Giusto (2 m.)
Dati ricevuti: 25/09/2017 22:15
Sereno
Sereno
 Vento da SSE
Vento: SSE 7 km/h
TEMPERATURA: 16°C
P.to di Rugiada: 16°C
Umidità: 100%
Pressione: 1019 hPa
Condizioni generali: Sereno
Visibilità: oltre 10 km
2017/09/25 20:15 LIRP 252015Z 16004KT CAVOK 16/16 Q1019 NOSIG